Time;durP1;ratioP1;P1;durP2;ratioP2;P2;SDS_P1;SDS_P2;PMS_P1;PMS_P2;Temp;Humidity;BMP_temperature;BMP_pressure;BME280_temperature;BME280_humidity;BME280_pressure;Samples;Min_cycle;Max_cycle;Signal;HPM_P1;HPM_P2
2021/10/24 00:01:37;;;;;;;3.12;2.60;;;;;;;17.76;40.96;100226.47;1787336;79;21049;-69
2021/10/24 00:04:05;;;;;;;3.47;2.35;;;;;;;17.74;40.98;100225.84;1777270;79;21116;-70
2021/10/24 00:06:31;;;;;;;4.10;3.00;;;;;;;17.75;40.97;100223.98;1788203;78;21068;-70
2021/10/24 00:08:58;;;;;;;3.20;2.90;;;;;;;17.74;40.98;100219.65;1794760;78;20989;-70
2021/10/24 00:11:26;;;;;;;4.15;2.85;;;;;;;17.73;40.96;100222.86;1810200;78;21057;-70
2021/10/24 00:13:52;;;;;;;3.83;2.50;;;;;;;17.72;40.98;100229.25;1800260;79;21564;-70
2021/10/24 00:16:18;;;;;;;3.08;2.67;;;;;;;17.72;41.03;100220.37;1805183;78;21112;-70
2021/10/24 00:18:45;;;;;;;4.72;2.70;;;;;;;17.71;41.01;100221.39;1797811;78;21046;-71
2021/10/24 00:21:12;;;;;;;3.17;2.62;;;;;;;17.69;41.05;100225.12;1809030;78;21041;-71
2021/10/24 00:23:39;;;;;;;2.75;2.55;;;;;;;17.70;41.04;100228.62;1775872;80;21083;-71
2021/10/24 00:26:06;;;;;;;3.58;2.92;;;;;;;17.69;41.02;100228.30;1752108;80;21012;-70
2021/10/24 00:30:18;;;;;;;3.87;2.80;;;;;;;17.73;41.01;100216.64;1837665;75;28948;-71
2021/10/24 00:32:45;;;;;;;2.80;2.52;;;;;;;17.66;41.03;100218.80;1805654;78;21029;-70
2021/10/24 00:35:11;;;;;;;3.30;2.47;;;;;;;17.66;41.02;100220.14;1823726;77;22570;-69
2021/10/24 00:37:38;;;;;;;3.27;2.75;;;;;;;17.60;41.05;100210.21;1825239;77;21013;-71
2021/10/24 00:40:06;;;;;;;4.47;2.92;;;;;;;17.66;41.09;100227.38;1821717;77;21044;-72
2021/10/24 00:42:33;;;;;;;2.90;2.52;;;;;;;17.55;41.09;100203.79;1804437;78;21542;-70
2021/10/24 00:44:59;;;;;;;3.12;2.37;;;;;;;17.64;41.14;100221.38;1822327;78;21102;-71
2021/10/24 00:47:25;;;;;;;3.60;2.50;;;;;;;17.64;41.13;100228.10;1817038;77;20991;-71
2021/10/24 00:49:53;;;;;;;4.37;2.90;;;;;;;17.62;41.19;100229.64;1798447;78;21008;-70
2021/10/24 00:52:20;;;;;;;2.92;2.60;;;;;;;17.62;41.19;100230.16;1817378;78;20925;-71
2021/10/24 00:54:46;;;;;;;3.10;2.37;;;;;;;17.62;41.15;100231.51;1812516;78;21041;-70
2021/10/24 00:57:12;;;;;;;3.15;2.75;;;;;;;17.62;41.15;100232.84;1821658;77;21630;-70
2021/10/24 00:59:39;;;;;;;3.65;2.70;;;;;;;17.60;41.20;100230.88;1809245;77;21049;-70
2021/10/24 01:02:06;;;;;;;4.65;3.17;;;;;;;17.60;41.18;100234.39;1823659;78;21041;-70
2021/10/24 01:04:32;;;;;;;3.52;2.60;;;;;;;17.60;41.15;100243.79;1786173;77;21507;-70
2021/10/24 01:07:03;;;;;;;3.85;2.87;;;;;;;17.60;41.18;100236.26;1802786;77;21629;-70
2021/10/24 01:09:32;;;;;;;4.35;2.80;;;;;;;17.59;41.16;100234.59;1815935;77;21004;-69
2021/10/24 01:11:59;;;;;;;3.02;2.70;;;;;;;17.57;41.19;100240.16;1805310;77;21122;-71
2021/10/24 01:14:26;;;;;;;3.85;3.20;;;;;;;17.56;41.19;100246.58;1821509;78;21032;-70
2021/10/24 01:16:53;;;;;;;2.90;2.65;;;;;;;17.57;41.20;100254.11;1820382;77;21072;-70
2021/10/24 01:19:20;;;;;;;3.80;2.70;;;;;;;17.56;41.19;100255.97;1822587;77;21498;-70
2021/10/24 01:21:48;;;;;;;3.20;2.80;;;;;;;17.56;41.20;100263.19;1825357;77;21030;-70
2021/10/24 01:24:14;;;;;;;3.17;2.67;;;;;;;17.55;41.21;100264.23;1825774;77;21598;-70
2021/10/24 01:26:41;;;;;;;2.80;2.37;;;;;;;17.53;41.30;100264.42;1817556;77;21040;-70
2021/10/24 01:29:09;;;;;;;3.42;2.65;;;;;;;17.54;41.26;100265.24;1823312;78;21016;-71
2021/10/24 01:31:37;;;;;;;3.25;2.95;;;;;;;17.52;41.28;100264.13;1828171;76;21542;-70
2021/10/24 01:34:06;;;;;;;3.70;2.72;;;;;;;17.53;41.26;100271.66;1806159;76;21540;-70
2021/10/24 01:36:34;;;;;;;4.20;3.08;;;;;;;17.52;41.25;100276.70;1832189;77;21124;-70
2021/10/24 01:39:01;;;;;;;3.70;2.85;;;;;;;17.51;41.31;100270.52;1837727;77;21045;-70
2021/10/24 01:41:28;;;;;;;3.12;2.77;;;;;;;17.49;41.28;100274.73;1831266;77;21462;-69
2021/10/24 01:43:55;;;;;;;2.70;2.30;;;;;;;17.49;41.28;100277.42;1825006;78;21482;-70
2021/10/24 01:46:22;;;;;;;3.45;2.58;;;;;;;17.49;41.32;100273.91;1827468;77;21075;-70
2021/10/24 01:48:49;;;;;;;3.87;2.50;;;;;;;17.49;41.30;100276.08;1830898;77;21923;-70
2021/10/24 01:51:16;;;;;;;3.37;2.75;;;;;;;17.47;41.31;100275.98;1812323;78;21515;-71
2021/10/24 01:53:45;;;;;;;3.42;3.00;;;;;;;17.47;41.37;100275.98;1812800;76;21055;-71
2021/10/24 01:56:12;;;;;;;3.45;2.67;;;;;;;17.45;41.36;100276.17;1834282;76;21099;-70
2021/10/24 01:58:40;;;;;;;3.20;2.50;;;;;;;17.45;41.37;100280.20;1826072;77;20992;-71
2021/10/24 02:01:07;;;;;;;4.97;3.15;;;;;;;17.45;41.37;100276.69;1828919;78;21107;-72
2021/10/24 02:03:53;;;;;;;4.37;3.12;;;;;;;17.44;41.34;100277.70;1829885;76;21060;-70
2021/10/24 02:06:40;;;;;;;3.30;2.42;;;;;;;17.43;41.32;100287.63;1832183;76;21485;-71
2021/10/24 02:09:08;;;;;;;2.60;2.30;;;;;;;17.42;41.38;100285.98;1814873;77;20970;-70
2021/10/24 02:11:34;;;;;;;3.98;2.60;;;;;;;17.42;41.38;100290.51;1826196;76;21555;-71
2021/10/24 02:14:02;;;;;;;3.58;2.62;;;;;;;17.39;41.42;100290.41;1830800;76;21124;-70
2021/10/24 02:16:31;;;;;;;3.12;2.70;;;;;;;17.40;41.39;100289.88;1823468;77;21095;-71
2021/10/24 02:18:57;;;;;;;2.67;2.35;;;;;;;17.40;41.43;100293.91;1829156;77;21513;-70
2021/10/24 02:21:24;;;;;;;3.58;2.37;;;;;;;17.38;41.42;100288.73;1829768;76;21095;-70
2021/10/24 02:23:52;;;;;;;4.25;3.02;;;;;;;17.39;41.42;100297.12;1830457;76;21035;-72
2021/10/24 02:26:18;;;;;;;3.00;2.50;;;;;;;17.38;41.43;100300.00;1826760;76;21209;-71
2021/10/24 02:28:45;;;;;;;4.10;3.00;;;;;;;17.37;41.48;100299.17;1828856;76;21042;-70
2021/10/24 02:31:11;;;;;;;4.12;2.83;;;;;;;17.33;41.49;100300.60;1829368;77;21616;-70
2021/10/24 02:33:39;;;;;;;3.47;2.40;;;;;;;17.38;41.49;100310.73;1821892;77;21497;-69
2021/10/24 02:36:07;;;;;;;3.02;2.40;;;;;;;17.37;41.44;100315.28;1819443;77;21568;-70
2021/10/24 02:38:35;;;;;;;2.98;2.40;;;;;;;17.37;41.48;100320.66;1831624;76;21237;-70
2021/10/24 02:41:01;;;;;;;3.45;2.60;;;;;;;17.36;41.46;100314.95;1816007;78;21049;-70
2021/10/24 02:43:27;;;;;;;2.60;2.25;;;;;;;17.37;41.46;100317.16;1828481;76;21098;-70
2021/10/24 02:45:54;;;;;;;3.77;2.52;;;;;;;17.36;41.48;100319.51;1788693;77;22078;-70
2021/10/24 02:48:21;;;;;;;3.47;2.42;;;;;;;17.35;41.52;100316.52;1823631;77;21093;-70
2021/10/24 02:50:47;;;;;;;3.75;2.75;;;;;;;17.34;41.53;100318.36;1824553;78;21056;-72
2021/10/24 02:53:15;;;;;;;2.87;2.42;;;;;;;17.34;41.50;100318.87;1825949;76;21072;-70
2021/10/24 02:55:42;;;;;;;3.65;2.72;;;;;;;17.34;41.49;100322.91;1834633;77;20996;-70
2021/10/24 02:58:10;;;;;;;2.72;2.45;;;;;;;17.32;41.48;100320.41;1833892;77;21512;-70
2021/10/24 03:00:39;;;;;;;3.47;2.80;;;;;;;17.33;41.47;100316.72;1800595;78;21068;-70
2021/10/24 03:03:06;;;;;;;2.55;2.22;;;;;;;17.30;41.47;100313.89;1836258;77;21926;-70
2021/10/24 03:05:32;;;;;;;3.55;2.45;;;;;;;17.32;41.50;100319.59;1828588;77;21047;-71
2021/10/24 03:08:00;;;;;;;3.77;2.72;;;;;;;17.31;41.48;100317.42;1830015;76;21024;-71
2021/10/24 03:10:27;;;;;;;3.05;2.55;;;;;;;17.30;41.48;100315.23;1832650;76;21098;-70
2021/10/24 03:12:54;;;;;;;3.55;2.80;;;;;;;17.29;41.51;100318.97;1820849;76;21009;-71
2021/10/24 03:15:20;;;;;;;3.15;2.72;;;;;;;17.29;41.52;100322.17;1821125;76;21139;-70
2021/10/24 03:17:47;;;;;;;2.60;2.40;;;;;;;17.28;41.55;100325.34;1844035;77;21572;-70
2021/10/24 03:20:13;;;;;;;2.72;2.37;;;;;;;17.27;41.54;100325.05;1830438;76;21018;-69
2021/10/24 03:22:40;;;;;;;3.00;2.58;;;;;;;17.26;41.51;100322.03;1830719;76;21052;-69
2021/10/24 03:25:07;;;;;;;3.25;2.87;;;;;;;17.26;41.50;100322.55;1819153;76;21045;-70
2021/10/24 03:27:34;;;;;;;3.15;2.70;;;;;;;17.26;41.49;100320.69;1826484;76;21124;-70
2021/10/24 03:30:02;;;;;;;3.80;2.55;;;;;;;17.25;41.50;100328.45;1793571;78;21044;-70
2021/10/24 03:32:29;;;;;;;3.50;2.52;;;;;;;17.25;41.53;100329.79;1816819;78;21009;-70
2021/10/24 03:34:55;;;;;;;2.70;2.42;;;;;;;17.24;41.55;100331.32;1822496;78;21031;-71
2021/10/24 03:37:22;;;;;;;4.30;3.05;;;;;;;17.24;41.57;100332.66;1803612;78;21001;-71
2021/10/24 03:39:51;;;;;;;3.92;3.27;;;;;;;17.23;41.57;100333.19;1828817;77;21128;-71
2021/10/24 03:42:17;;;;;;;2.90;2.30;;;;;;;17.22;41.57;100341.43;1824124;77;21079;-71
2021/10/24 03:44:45;;;;;;;4.17;3.02;;;;;;;17.22;41.57;100344.94;1826278;77;21517;-70
2021/10/24 03:47:11;;;;;;;3.00;2.42;;;;;;;17.21;41.54;100340.61;1817651;77;21025;-69
2021/10/24 03:49:38;;;;;;;3.70;2.75;;;;;;;17.14;41.58;100330.85;1789947;78;21019;-72
2021/10/24 03:52:05;;;;;;;3.42;2.27;;;;;;;17.20;41.64;100347.52;1804096;77;21111;-71
2021/10/24 03:54:32;;;;;;;3.95;2.47;;;;;;;17.19;41.61;100345.84;1828575;77;21634;-71
2021/10/24 03:56:59;;;;;;;3.52;2.65;;;;;;;17.19;41.61;100348.52;1823887;78;21500;-70
2021/10/24 03:59:26;;;;;;;3.72;2.40;;;;;;;17.19;41.63;100351.20;1808199;78;21083;-70
2021/10/24 04:01:53;;;;;;;3.83;2.70;;;;;;;17.18;41.61;100350.91;1813725;77;21591;-71
2021/10/24 04:04:20;;;;;;;2.40;2.20;;;;;;;17.17;41.65;100351.92;1827315;78;22109;-70
2021/10/24 04:06:46;;;;;;;4.00;2.42;;;;;;;17.16;41.63;100352.44;1827366;77;20978;-70
2021/10/24 04:09:13;;;;;;;2.60;2.27;;;;;;;17.15;41.65;100350.77;1796313;78;21060;-70
2021/10/24 04:11:40;;;;;;;2.83;2.27;;;;;;;17.15;41.68;100352.63;1795008;78;21481;-70
2021/10/24 04:14:06;;;;;;;3.95;2.85;;;;;;;17.15;41.67;100358.00;1822372;77;20998;-71
2021/10/24 04:16:34;;;;;;;3.10;2.50;;;;;;;17.14;41.67;100355.02;1821689;77;21081;-70
2021/10/24 04:19:05;;;;;;;3.25;2.60;;;;;;;17.13;41.70;100356.02;1823322;77;21569;-70
2021/10/24 04:21:33;;;;;;;2.98;2.15;;;;;;;17.12;41.70;100361.91;1841175;77;21547;-71
2021/10/24 04:23:59;;;;;;;2.90;2.47;;;;;;;17.12;41.75;100363.78;1810821;77;21088;-70
2021/10/24 04:26:26;;;;;;;2.95;2.27;;;;;;;17.10;41.75;100362.11;1819046;77;21071;-71
2021/10/24 04:28:52;;;;;;;4.25;3.15;;;;;;;17.10;41.72;100372.02;1837097;77;21119;-71
2021/10/24 04:31:19;;;;;;;2.85;2.50;;;;;;;17.10;41.75;100366.66;1823695;77;21045;-70
2021/10/24 04:33:46;;;;;;;3.08;2.40;;;;;;;17.09;41.78;100372.55;1822825;77;21494;-71
2021/10/24 04:36:13;;;;;;;2.98;2.60;;;;;;;17.08;41.77;100372.20;1822586;77;21508;-71
2021/10/24 04:38:42;;;;;;;3.65;2.35;;;;;;;17.07;41.76;100365.69;1823577;77;21061;-70
2021/10/24 04:41:08;;;;;;;2.62;2.05;;;;;;;17.07;41.82;100379.96;1795579;78;21112;-70
2021/10/24 04:43:34;;;;;;;4.30;2.62;;;;;;;17.06;41.77;100374.26;1823617;77;21564;-71
2021/10/24 04:46:01;;;;;;;2.70;2.50;;;;;;;17.06;41.80;100379.63;1795290;77;21039;-71
2021/10/24 04:48:28;;;;;;;3.90;2.52;;;;;;;17.06;41.78;100383.66;1790927;77;20988;-71
2021/10/24 04:50:55;;;;;;;2.75;2.40;;;;;;;17.06;41.75;100392.23;1815038;77;21014;-71
2021/10/24 04:53:23;;;;;;;3.70;2.80;;;;;;;17.05;41.74;100392.72;1827278;77;21097;-71
2021/10/24 04:55:51;;;;;;;3.22;2.27;;;;;;;17.04;41.76;100392.42;1855768;77;20984;-70
2021/10/24 04:58:17;;;;;;;5.00;2.75;;;;;;;17.04;41.80;100396.97;1834247;77;21100;-70
2021/10/24 05:00:44;;;;;;;3.80;2.50;;;;;;;17.03;41.81;100399.31;1820369;77;21022;-70
2021/10/24 05:03:12;;;;;;;3.77;2.90;;;;;;;17.02;41.79;100395.81;1822159;77;21081;-73
2021/10/24 05:05:40;;;;;;;4.90;2.70;;;;;;;17.03;41.81;100399.31;1846301;77;21045;-71
2021/10/24 05:08:07;;;;;;;2.67;2.20;;;;;;;17.03;41.80;100400.66;1795265;78;21005;-71
2021/10/24 05:10:33;;;;;;;3.27;2.58;;;;;;;17.02;41.80;100411.09;1818049;77;21023;-70
2021/10/24 05:13:00;;;;;;;3.05;2.35;;;;;;;17.01;41.82;100412.11;1818285;77;21047;-70
2021/10/24 05:15:28;;;;;;;3.45;3.00;;;;;;;17.02;41.79;100419.15;1823773;77;21056;-70
2021/10/24 05:17:55;;;;;;;3.72;2.72;;;;;;;17.01;41.80;100421.50;1820229;77;21185;-70
2021/10/24 05:20:22;;;;;;;3.17;2.87;;;;;;;17.01;41.81;100426.34;1823469;77;21488;-70
2021/10/24 05:22:48;;;;;;;3.65;2.55;;;;;;;16.98;41.83;100429.44;1812541;77;21064;-70
2021/10/24 05:25:15;;;;;;;3.12;2.62;;;;;;;17.01;41.83;100433.58;1812980;78;21010;-70
2021/10/24 05:27:42;;;;;;;3.15;2.70;;;;;;;17.01;41.84;100438.94;1823555;77;21043;-71
2021/10/24 05:30:09;;;;;;;3.40;2.83;;;;;;;16.99;41.84;100438.31;1820246;77;21072;-71
2021/10/24 05:32:35;;;;;;;3.70;2.60;;;;;;;16.99;41.85;100440.47;1819245;77;21044;-70
2021/10/24 05:35:04;;;;;;;3.10;2.40;;;;;;;16.99;41.85;100451.73;1801547;78;21056;-70
2021/10/24 05:37:31;;;;;;;3.25;2.47;;;;;;;16.99;41.87;100453.06;1820506;77;21090;-71
2021/10/24 05:39:58;;;;;;;3.22;2.20;;;;;;;16.99;41.88;100453.06;1823743;77;21536;-71
2021/10/24 05:42:41;;;;;;;;;;;;;;;16.99;41.89;100457.09;1814365;77;21498;-72
2021/10/24 05:45:09;;;;;;;3.58;2.45;;;;;;;16.98;41.90;100456.77;1812538;77;20197;-73
2021/10/24 05:47:38;;;;;;;3.45;2.55;;;;;;;16.94;41.93;100461.71;1851844;77;21559;-71
2021/10/24 05:50:09;;;;;;;3.02;2.72;;;;;;;16.94;41.97;100469.77;1818414;77;21466;-70
2021/10/24 05:52:36;;;;;;;4.33;2.52;;;;;;;16.93;41.99;100474.80;1819128;77;21005;-69
2021/10/24 05:55:05;;;;;;;4.05;3.10;;;;;;;16.95;41.96;100482.14;1847289;77;22186;-72
2021/10/24 05:57:32;;;;;;;3.98;3.22;;;;;;;16.95;41.93;100478.64;1843461;77;21029;-71
2021/10/24 06:00:15;;;;;;;2.72;2.42;;;;;;;16.95;41.93;100485.34;1752136;81;21112;-72
2021/10/24 06:02:52;;;;;;;5.08;3.15;;;;;;;16.94;41.98;100491.23;1809069;77;20978;-70
2021/10/24 06:05:26;;;;;;;3.83;2.80;;;;;;;16.94;41.98;100493.91;1848221;77;21610;-71
2021/10/24 06:07:54;;;;;;;3.02;2.37;;;;;;;16.95;41.96;100494.73;1856026;77;21553;-70
2021/10/24 06:10:22;;;;;;;2.83;2.42;;;;;;;16.93;41.98;100494.92;1824897;77;21083;-70
2021/10/24 06:12:52;;;;;;;4.00;3.05;;;;;;;16.94;41.98;100499.28;1821811;78;21045;-70
2021/10/24 06:15:20;;;;;;;2.92;2.50;;;;;;;16.95;41.96;100502.27;1809065;77;20997;-70
2021/10/24 06:17:47;;;;;;;3.12;2.40;;;;;;;16.95;41.96;100508.16;1822743;77;21021;-71
2021/10/24 06:20:14;;;;;;;3.10;2.33;;;;;;;16.96;41.96;100508.46;1820025;77;21136;-71
2021/10/24 06:22:41;;;;;;;5.20;2.92;;;;;;;16.85;41.96;100495.06;1827219;77;21057;-71
2021/10/24 06:25:09;;;;;;;4.87;3.27;;;;;;;16.96;41.95;100514.69;1796761;77;21529;-73
2021/10/24 06:27:37;;;;;;;2.83;2.50;;;;;;;16.97;41.96;100517.67;1815967;78;21068;-70
2021/10/24 06:30:06;;;;;;;4.05;2.85;;;;;;;16.98;41.95;100517.15;1803951;78;21001;-71
2021/10/24 06:32:35;;;;;;;5.05;3.22;;;;;;;16.97;41.95;100517.67;1819096;77;21157;-70
2021/10/24 06:35:20;;;;;;;3.60;2.50;;;;;;;16.97;41.98;100521.70;1807930;78;21565;-71
2021/10/24 06:37:57;;;;;;;3.35;2.22;;;;;;;16.96;41.95;100526.77;1822050;78;21574;-71
2021/10/24 06:40:24;;;;;;;3.62;2.90;;;;;;;16.96;41.98;100522.73;1807870;78;21047;-70
2021/10/24 06:42:52;;;;;;;3.90;2.33;;;;;;;16.96;41.97;100526.77;1818994;77;21507;-71
2021/10/24 06:45:32;;;;;;;3.02;2.30;;;;;;;16.97;42.00;100532.95;1816854;77;21099;-71
2021/10/24 06:48:17;;;;;;;3.22;2.70;;;;;;;16.97;42.00;100535.12;1831016;77;21049;-70
2021/10/24 06:50:58;;;;;;;3.65;2.47;;;;;;;16.97;41.99;100530.27;1831129;77;21007;-71
2021/10/24 06:53:43;;;;;;;2.52;2.30;;;;;;;16.97;42.03;100548.53;1808704;77;21088;-72
2021/10/24 06:56:27;;;;;;;3.92;2.40;;;;;;;16.97;41.99;100536.45;1810185;77;21021;-71
2021/10/24 06:59:13;;;;;;;3.15;2.60;;;;;;;16.97;42.03;100543.69;1821758;77;21128;-72
2021/10/24 07:01:46;;;;;;;3.05;2.20;;;;;;;16.97;42.00;100553.91;1815761;77;21037;-71
2021/10/24 07:04:19;;;;;;;3.00;2.70;;;;;;;16.99;42.01;100564.45;1833955;77;21531;-72
2021/10/24 07:06:48;;;;;;;3.25;2.75;;;;;;;16.98;42.00;100556.92;1836161;77;20993;-71
2021/10/24 07:09:19;;;;;;;3.40;2.45;;;;;;;17.01;41.99;100565.09;1821975;77;21511;-70
2021/10/24 07:11:46;;;;;;;2.52;2.30;;;;;;;17.01;41.99;100561.89;1801379;78;21119;-71
2021/10/24 07:14:14;;;;;;;2.45;1.87;;;;;;;17.02;41.97;100568.94;1804628;79;21056;-70
2021/10/24 07:16:42;;;;;;;3.08;2.77;;;;;;;17.03;41.95;100566.56;1818131;78;21051;-71
2021/10/24 07:19:12;;;;;;;3.00;2.52;;;;;;;17.06;41.94;100570.73;1825826;77;21046;-71
2021/10/24 07:21:39;;;;;;;3.30;2.55;;;;;;;17.05;41.94;100571.22;1796464;78;21508;-71
2021/10/24 07:24:06;;;;;;;2.37;2.02;;;;;;;17.08;41.90;100566.01;1831087;77;21575;-71
2021/10/24 07:26:35;;;;;;;3.47;2.40;;;;;;;17.09;41.91;100566.31;1836223;77;21067;-70
2021/10/24 07:29:02;;;;;;;2.72;2.42;;;;;;;17.10;41.89;100563.96;1836948;77;21032;-71
2021/10/24 07:31:29;;;;;;;2.92;2.08;;;;;;;17.12;41.87;100574.52;1820233;77;21096;-60
2021/10/24 07:34:14;;;;;;;3.10;2.12;;;;;;;17.13;41.86;100572.95;1826232;77;21026;-63
2021/10/24 07:36:43;;;;;;;2.95;2.02;;;;;;;17.16;41.82;100582.50;1812079;77;21113;-62
2021/10/24 07:39:10;;;;;;;2.40;1.95;;;;;;;17.17;41.82;100578.78;1818179;77;21737;-60
2021/10/24 07:41:36;;;;;;;2.90;2.47;;;;;;;17.18;41.79;100583.14;1803595;77;21249;-62
2021/10/24 07:44:06;;;;;;;2.87;2.50;;;;;;;17.20;41.79;100580.58;1819247;77;21024;-61
2021/10/24 07:46:36;;;;;;;3.42;2.30;;;;;;;17.22;41.77;100584.42;1818395;77;21035;-70
2021/10/24 07:49:02;;;;;;;3.17;2.15;;;;;;;17.23;41.77;100586.06;1819673;77;21141;-71
2021/10/24 07:51:28;;;;;;;3.30;2.27;;;;;;;17.23;41.74;100580.70;1823568;77;21498;-70
2021/10/24 07:53:55;;;;;;;2.22;2.05;;;;;;;17.23;41.72;100580.20;1809256;78;21092;-70
2021/10/24 07:56:24;;;;;;;3.27;2.20;;;;;;;17.26;41.69;100584.36;1819880;77;21060;-69
2021/10/24 07:58:52;;;;;;;2.35;2.05;;;;;;;17.26;41.67;100587.86;1821498;77;21591;-70
2021/10/24 08:01:21;;;;;;;2.10;1.90;;;;;;;17.27;41.69;100586.03;1827474;77;21010;-72
2021/10/24 08:03:48;;;;;;;2.47;1.98;;;;;;;17.27;41.66;100589.54;1815557;77;21041;-71
2021/10/24 08:06:21;;;;;;;2.72;2.17;;;;;;;17.29;41.65;100590.70;1817884;78;21553;-72
2021/10/24 08:08:46;;;;;;;2.83;2.10;;;;;;;17.29;41.65;100595.55;1820750;78;20961;-70
2021/10/24 08:11:12;;;;;;;2.40;2.20;;;;;;;17.32;41.65;100588.95;1816614;77;21079;-71
2021/10/24 08:13:39;;;;;;;2.50;2.27;;;;;;;17.33;41.64;100596.00;1817908;77;21169;-70
2021/10/24 08:16:06;;;;;;;3.17;2.30;;;;;;;17.36;41.64;100600.15;1823145;77;21030;-71
2021/10/24 08:18:32;;;;;;;2.10;1.85;;;;;;;17.40;41.60;100597.39;1821803;77;21547;-70
2021/10/24 08:21:03;;;;;;;2.35;2.05;;;;;;;17.42;41.59;100608.28;1814919;77;21001;-71
2021/10/24 08:23:31;;;;;;;2.50;2.20;;;;;;;17.47;41.55;100613.89;1824833;77;21100;-71
2021/10/24 08:25:58;;;;;;;2.33;2.00;;;;;;;17.52;41.54;100611.14;1821702;77;21087;-70
2021/10/24 08:28:25;;;;;;;2.33;2.10;;;;;;;17.54;41.49;100610.43;1821849;78;21029;-72
2021/10/24 08:30:54;;;;;;;2.72;2.25;;;;;;;17.57;41.45;100608.20;1814416;77;21100;-70
2021/10/24 08:33:23;;;;;;;2.20;2.00;;;;;;;17.61;41.41;100619.39;1816281;78;21013;-70
2021/10/24 08:35:49;;;;;;;1.80;1.60;;;;;;;17.63;41.37;100619.52;1816018;77;21568;-71
2021/10/24 08:38:16;;;;;;;3.02;2.30;;;;;;;17.66;41.33;100621.00;1820465;77;21075;-71
2021/10/24 08:40:45;;;;;;;2.50;1.98;;;;;;;17.68;41.31;100625.67;1821432;77;21045;-71
2021/10/24 08:43:17;;;;;;;2.10;1.90;;;;;;;17.71;41.27;100620.41;1847453;77;20996;-73
2021/10/24 08:45:43;;;;;;;2.77;2.22;;;;;;;17.73;41.24;100627.27;1839121;77;21035;-70
2021/10/24 08:48:09;;;;;;;2.77;2.15;;;;;;;17.74;41.21;100630.78;1817050;77;21085;-71
2021/10/24 08:50:36;;;;;;;2.08;1.90;;;;;;;17.76;41.16;100634.11;1819741;77;22117;-73
2021/10/24 08:53:06;;;;;;;2.02;1.82;;;;;;;17.78;41.15;100634.74;1837171;77;21005;-70
2021/10/24 08:55:32;;;;;;;2.62;2.05;;;;;;;17.80;41.09;100633.52;1816994;77;21098;-71
2021/10/24 08:57:59;;;;;;;2.60;2.12;;;;;;;17.83;41.07;100630.45;1821947;77;21044;-69
2021/10/24 09:00:26;;;;;;;1.95;1.77;;;;;;;17.86;41.06;100633.28;1825527;77;21056;-71
2021/10/24 09:03:07;;;;;;;2.20;2.00;;;;;;;17.87;41.05;100633.09;1820568;77;21082;-70
2021/10/24 09:05:42;;;;;;;2.12;1.92;;;;;;;17.90;41.01;100640.45;1813580;77;21564;-70
2021/10/24 09:08:14;;;;;;;2.60;1.87;;;;;;;17.90;40.98;100653.89;1820296;77;21033;-71
2021/10/24 09:10:51;;;;;;;2.20;2.00;;;;;;;17.90;40.95;100665.47;1819451;77;21042;-72
2021/10/24 09:13:27;;;;;;;2.17;1.90;;;;;;;17.91;40.95;100675.21;1820836;78;21513;-70
2021/10/24 09:16:01;;;;;;;2.33;2.12;;;;;;;17.91;40.92;100675.73;1822693;77;21506;-71
2021/10/24 09:18:37;;;;;;;1.90;1.72;;;;;;;17.90;40.92;100673.53;1815532;77;21064;-71
2021/10/24 09:21:24;;;;;;;2.52;1.90;;;;;;;17.88;40.96;100667.00;1820114;77;21049;-71
2021/10/24 09:24:01;;;;;;;2.00;1.80;;;;;;;17.87;40.99;100674.76;1813883;77;21061;-71
2021/10/24 09:26:30;;;;;;;2.33;1.77;;;;;;;17.76;40.98;100660.45;1814846;77;21012;-72
2021/10/24 09:29:16;;;;;;;1.90;1.67;;;;;;;17.86;40.99;100681.14;1830506;77;21148;-72
2021/10/24 09:31:51;;;;;;;1.90;1.70;;;;;;;17.88;41.04;100680.95;1788665;78;21072;-71
2021/10/24 09:34:22;;;;;;;2.30;1.92;;;;;;;17.91;41.02;100674.39;1804600;77;21583;-72
2021/10/24 09:36:59;;;;;;;1.90;1.77;;;;;;;17.95;41.01;100679.17;1808603;77;21083;-71
2021/10/24 09:39:37;;;;;;;2.95;1.90;;;;;;;18.01;41.01;100674.87;1811281;77;21119;-71
2021/10/24 09:42:23;;;;;;;2.00;1.80;;;;;;;18.07;41.05;100672.75;1824766;77;21040;-71
2021/10/24 09:45:09;;;;;;;1.85;1.67;;;;;;;18.16;40.98;100674.80;1812135;77;20994;-70
2021/10/24 09:47:45;;;;;;;2.65;1.80;;;;;;;18.24;40.84;100674.64;1825042;77;20987;-72
2021/10/24 09:50:32;;;;;;;2.35;1.70;;;;;;;18.33;40.76;100662.72;1824613;77;21076;-71
2021/10/24 09:53:22;;;;;;;1.75;1.60;;;;;;;18.39;40.83;100669.17;1824634;77;22172;-70
2021/10/24 09:56:00;;;;;;;2.25;1.77;;;;;;;18.43;40.84;100663.19;1811873;78;21123;-72
2021/10/24 09:58:33;;;;;;;1.70;1.60;;;;;;;18.47;40.86;100671.18;1813883;78;20989;-70
2021/10/24 10:01:00;;;;;;;1.70;1.60;;;;;;;18.51;40.84;100669.45;1802468;77;21056;-71
2021/10/24 10:03:27;;;;;;;1.62;1.50;;;;;;;18.53;40.78;100667.39;1823647;77;21627;-72
2021/10/24 10:05:55;;;;;;;1.60;1.42;;;;;;;18.53;40.78;100678.98;1817226;77;21580;-71
2021/10/24 10:08:22;;;;;;;2.98;1.77;;;;;;;18.55;40.78;100675.58;1812909;77;21135;-72
2021/10/24 10:10:55;;;;;;;2.52;1.72;;;;;;;18.57;40.74;100672.17;1817398;77;21025;-70
2021/10/24 10:13:24;;;;;;;1.90;1.60;;;;;;;18.58;40.72;100675.19;1811054;77;21004;-70
2021/10/24 10:15:50;;;;;;;1.92;1.60;;;;;;;18.60;40.68;100680.34;1819707;77;21024;-70
2021/10/24 10:18:18;;;;;;;1.72;1.62;;;;;;;18.59;40.67;100678.18;1819864;77;21028;-70
2021/10/24 10:20:48;;;;;;;1.95;1.72;;;;;;;18.61;40.64;100677.98;1821029;78;21091;-71
2021/10/24 10:23:17;;;;;;;1.75;1.62;;;;;;;18.60;40.61;100673.12;1818791;77;21080;-72
2021/10/24 10:25:44;;;;;;;2.33;1.82;;;;;;;18.62;40.57;100683.18;1818605;77;21504;-71
2021/10/24 10:28:15;;;;;;;1.72;1.57;;;;;;;18.62;40.52;100679.63;1817708;77;20990;-70
2021/10/24 10:30:45;;;;;;;1.50;1.40;;;;;;;18.62;40.50;100683.18;1819232;77;21077;-72
2021/10/24 10:33:34;;;;;;;1.60;1.50;;;;;;;18.62;40.47;100683.67;1824379;77;21080;-70
2021/10/24 10:36:03;;;;;;;1.72;1.62;;;;;;;18.60;40.43;100682.55;1824579;77;21059;-70
2021/10/24 10:38:43;;;;;;;1.87;1.72;;;;;;;18.60;40.43;100687.08;1829421;77;21093;-70
2021/10/24 10:41:13;;;;;;;2.02;1.82;;;;;;;18.58;40.43;100685.95;1800363;77;21087;-71
2021/10/24 10:43:41;;;;;;;1.70;1.52;;;;;;;18.58;40.42;100683.27;1822557;77;21052;-70
2021/10/24 10:46:08;;;;;;;2.20;1.75;;;;;;;18.59;40.40;100683.56;1820591;77;21111;-70
2021/10/24 10:48:42;;;;;;;1.95;1.75;;;;;;;18.63;40.44;100684.00;1818456;77;21102;-71
2021/10/24 10:51:25;;;;;;;1.85;1.70;;;;;;;18.69;40.42;100682.38;1820341;77;20991;-71
2021/10/24 10:53:55;;;;;;;1.60;1.50;;;;;;;18.75;40.39;100685.62;1821884;77;21134;-71
2021/10/24 10:56:43;;;;;;;1.47;1.37;;;;;;;18.79;40.44;100683.66;1821290;78;21282;-71
2021/10/24 10:59:18;;;;;;;2.20;1.60;;;;;;;18.83;40.48;100686.82;1834542;77;21137;-71
2021/10/24 11:01:44;;;;;;;1.70;1.60;;;;;;;18.83;40.48;100694.41;1821005;77;21575;-71
2021/10/24 11:04:15;;;;;;;2.02;1.80;;;;;;;18.85;40.44;100692.84;1809238;77;21080;-71
2021/10/24 11:06:52;;;;;;;1.80;1.50;;;;;;;18.86;40.43;100697.20;1816358;77;21017;-71
2021/10/24 11:09:42;;;;;;;1.57;1.30;;;;;;;18.85;40.41;100702.26;1821919;77;20988;-72
2021/10/24 11:12:32;;;;;;;1.60;1.40;;;;;;;18.84;40.30;100692.02;1820227;78;21174;-72
2021/10/24 11:15:18;;;;;;;1.85;1.75;;;;;;;18.83;40.30;100699.79;1811987;77;21623;-70
2021/10/24 11:17:48;;;;;;;1.67;1.57;;;;;;;18.81;40.22;100703.69;1805740;77;21023;-71
2021/10/24 11:20:24;;;;;;;1.70;1.60;;;;;;;18.79;40.18;100708.41;1843498;77;21000;-72
2021/10/24 11:23:02;;;;;;;1.70;1.60;;;;;;;18.77;40.15;100711.81;1831037;77;21015;-71
2021/10/24 11:25:38;;;;;;;2.27;1.92;;;;;;;18.75;40.13;100718.73;1856155;77;21108;-72
2021/10/24 11:28:14;;;;;;;1.55;1.45;;;;;;;18.74;40.10;100716.27;1805440;77;20955;-71
2021/10/24 11:30:41;;;;;;;2.02;1.80;;;;;;;18.72;40.08;100719.16;1847269;77;21052;-71
2021/10/24 11:33:08;;;;;;;1.85;1.60;;;;;;;18.71;40.06;100719.34;1856373;77;21055;-71
2021/10/24 11:35:37;;;;;;;1.70;1.60;;;;;;;18.71;40.05;100733.62;1835772;77;21048;-72
2021/10/24 11:38:09;;;;;;;1.62;1.50;;;;;;;18.70;40.02;100728.44;1815175;77;21190;-71